createdAt,value
2023-02-12T00:00:21.888Z,1025.17
2023-02-12T00:01:21.856Z,1025.23
2023-02-12T00:02:21.887Z,1025.21
2023-02-12T00:03:21.830Z,1025.18
2023-02-12T00:04:21.764Z,1025.17
2023-02-12T00:05:21.728Z,1025.18
2023-02-12T00:06:21.698Z,1025.17
2023-02-12T00:07:21.683Z,1025.17
2023-02-12T00:08:21.638Z,1025.17
2023-02-12T00:09:21.603Z,1025.18
2023-02-12T00:10:21.598Z,1025.18
2023-02-12T00:11:21.542Z,1025.14
2023-02-12T00:12:21.511Z,1025.19
2023-02-12T00:13:21.479Z,1025.15
2023-02-12T00:14:21.447Z,1025.15
2023-02-12T00:15:21.414Z,1025.15
2023-02-12T00:16:21.454Z,1025.18
2023-02-12T00:17:21.352Z,1025.15
2023-02-12T00:18:21.322Z,1025.13
2023-02-12T00:19:21.289Z,1025.11
2023-02-12T00:20:21.264Z,1025.13
2023-02-12T00:21:21.229Z,1025.1
2023-02-12T00:22:21.196Z,1025.11
2023-02-12T00:23:21.164Z,1025.11
2023-02-12T00:24:21.136Z,1025.13
2023-02-12T00:25:21.103Z,1025.07
2023-02-12T00:26:21.100Z,1025.11
2023-02-12T00:27:21.048Z,1025.05
2023-02-12T00:28:21.046Z,1025.1
2023-02-12T00:29:20.976Z,1025.07
2023-02-12T00:30:20.964Z,1025.09
2023-02-12T00:31:21.077Z,1025.09
2023-02-12T00:32:20.887Z,1025.08
2023-02-12T00:33:20.863Z,1025.13
2023-02-12T00:34:20.820Z,1025.14
2023-02-12T00:35:20.801Z,1025.08
2023-02-12T00:36:20.762Z,1025.08
2023-02-12T00:37:20.728Z,1025.11
2023-02-12T00:38:20.695Z,1025.08
2023-02-12T00:39:20.666Z,1025.1
2023-02-12T00:40:20.634Z,1025.07
2023-02-12T00:41:20.604Z,1025.06
2023-02-12T00:42:20.604Z,1025.06
2023-02-12T00:43:20.541Z,1025.07
2023-02-12T00:44:20.508Z,1025.08
2023-02-12T00:45:20.478Z,1025.02
2023-02-12T00:46:20.493Z,1025.05
2023-02-12T00:47:20.414Z,1025.04
2023-02-12T00:48:20.382Z,1025.03
2023-02-12T00:49:20.424Z,1025.05
2023-02-12T00:50:20.320Z,1025.04
2023-02-12T00:51:20.292Z,1025.04
2023-02-12T00:52:20.255Z,1025.03
2023-02-12T00:53:20.228Z,1025.04
2023-02-12T00:54:20.193Z,1025.05
2023-02-12T00:55:20.166Z,1025.09
2023-02-12T00:56:20.138Z,1025.1
2023-02-12T00:57:20.107Z,1025.11
2023-02-12T00:58:20.195Z,1025.12
2023-02-12T00:59:20.041Z,1025.14
2023-02-12T01:00:20.011Z,1025.17
2023-02-12T01:01:20.032Z,1025.14
2023-02-12T01:02:19.951Z,1025.13
2023-02-12T01:03:19.914Z,1025.14
2023-02-12T01:04:19.881Z,1025.14
2023-02-12T01:05:19.940Z,1025.11
2023-02-12T01:06:19.820Z,1025.09
2023-02-12T01:07:19.791Z,1025.14
2023-02-12T01:08:19.758Z,1025.1
2023-02-12T01:09:19.728Z,1025.07
2023-02-12T01:10:19.696Z,1025.06
2023-02-12T01:11:19.672Z,1025.06
2023-02-12T01:12:19.634Z,1025.05
2023-02-12T01:13:19.603Z,1025.04
2023-02-12T01:14:19.596Z,1025.08
2023-02-12T01:15:19.541Z,1025.04
2023-02-12T01:16:19.610Z,1025.02
2023-02-12T01:17:19.478Z,1024.98
2023-02-12T01:18:19.446Z,1025
2023-02-12T01:19:19.419Z,1025.02
2023-02-12T01:20:19.384Z,1025.03
2023-02-12T01:21:19.396Z,1025.01
2023-02-12T01:22:19.322Z,1025.02
2023-02-12T01:23:19.290Z,1025.02
2023-02-12T01:24:19.260Z,1024.99
2023-02-12T01:25:20.584Z,1024.98
2023-02-12T01:26:19.230Z,1025.02
2023-02-12T01:27:19.166Z,1024.95
2023-02-12T01:28:19.176Z,1024.99
2023-02-12T01:29:19.106Z,1025
2023-02-12T01:30:19.125Z,1025.02
2023-02-12T01:31:19.178Z,1025
2023-02-12T01:32:19.061Z,1024.99
2023-02-12T01:33:18.982Z,1025.03
2023-02-12T01:34:18.960Z,1025.05
2023-02-12T01:35:18.914Z,1025
2023-02-12T01:36:18.888Z,1025.02
2023-02-12T01:37:18.853Z,1025.01
2023-02-12T01:38:18.837Z,1025.04
2023-02-12T01:39:18.797Z,1025.04
2023-02-12T01:40:18.761Z,1025.05
2023-02-12T01:41:18.728Z,1025.06
2023-02-12T01:42:18.698Z,1025.05
2023-02-12T01:43:18.664Z,1025.03
2023-02-12T01:44:18.658Z,1025.02
2023-02-12T01:45:18.601Z,1025.05
2023-02-12T01:46:18.639Z,1025.02
2023-02-12T01:47:18.539Z,1025.06
2023-02-12T01:48:18.508Z,1025.05
2023-02-12T01:49:18.478Z,1025.04
2023-02-12T01:50:18.449Z,1025.05
2023-02-12T01:51:18.415Z,1025.03
2023-02-12T01:52:18.386Z,1025.02
2023-02-12T01:53:18.351Z,1024.99
2023-02-12T01:54:18.323Z,1025.02
2023-02-12T01:55:18.288Z,1025.04
2023-02-12T01:56:18.259Z,1025.01
2023-02-12T01:57:18.231Z,1024.99
2023-02-12T01:58:18.196Z,1024.98
2023-02-12T01:59:18.164Z,1025
2023-02-12T02:00:18.144Z,1024.96
2023-02-12T02:01:18.161Z,1024.96
2023-02-12T02:02:18.106Z,1024.95
2023-02-12T02:03:18.130Z,1024.95
2023-02-12T02:04:18.009Z,1024.96
2023-02-12T02:05:18.006Z,1024.95
2023-02-12T02:06:17.958Z,1024.94
2023-02-12T02:07:17.915Z,1024.95
2023-02-12T02:08:17.886Z,1024.96
2023-02-12T02:09:17.854Z,1024.95
2023-02-12T02:10:17.822Z,1024.96
2023-02-12T02:11:17.785Z,1024.94
2023-02-12T02:12:17.756Z,1024.96
2023-02-12T02:13:17.723Z,1024.96
2023-02-12T02:14:17.691Z,1025
2023-02-12T02:15:17.682Z,1024.95
2023-02-12T02:16:17.692Z,1024.95
2023-02-12T02:17:17.622Z,1024.97
2023-02-12T02:18:17.593Z,1024.95
2023-02-12T02:19:17.536Z,1024.94
2023-02-12T02:20:17.502Z,1024.94
2023-02-12T02:21:17.476Z,1024.91
2023-02-12T02:22:17.441Z,1024.87
2023-02-12T02:23:17.418Z,1024.95
2023-02-12T02:24:17.392Z,1024.93
2023-02-12T02:25:17.347Z,1024.93
2023-02-12T02:26:17.314Z,1024.9
2023-02-12T02:27:17.295Z,1024.95
2023-02-12T02:28:17.291Z,1024.9
2023-02-12T02:29:17.222Z,1024.87
2023-02-12T02:30:17.190Z,1024.85
2023-02-12T02:31:17.240Z,1024.85
2023-02-12T02:32:17.127Z,1024.88
2023-02-12T02:33:17.097Z,1024.89
2023-02-12T02:34:17.092Z,1024.85
2023-02-12T02:35:17.032Z,1024.84
2023-02-12T02:36:17.000Z,1024.81
2023-02-12T02:37:16.992Z,1024.82
2023-02-12T02:38:16.945Z,1024.8
2023-02-12T02:39:16.908Z,1024.79
2023-02-12T02:40:16.873Z,1024.78
2023-02-12T02:41:16.844Z,1024.77
2023-02-12T02:42:16.811Z,1024.77
2023-02-12T02:43:16.781Z,1024.76
2023-02-12T02:44:16.750Z,1024.79
2023-02-12T02:45:16.734Z,1024.8
2023-02-12T02:46:16.702Z,1024.8
2023-02-12T02:47:16.656Z,1024.8
2023-02-12T02:48:16.622Z,1024.71
2023-02-12T02:49:16.594Z,1024.77
2023-02-12T02:50:16.590Z,1024.75
2023-02-12T02:51:16.530Z,1024.75
2023-02-12T02:52:16.501Z,1024.7
2023-02-12T02:53:16.486Z,1024.74
2023-02-12T02:54:16.440Z,1024.72
2023-02-12T02:55:16.408Z,1024.71
2023-02-12T02:56:16.373Z,1024.66
2023-02-12T02:57:16.344Z,1024.65
2023-02-12T02:58:16.319Z,1024.66
2023-02-12T02:59:16.278Z,1024.68
2023-02-12T03:00:16.246Z,1024.68
2023-02-12T03:01:16.304Z,1024.67
2023-02-12T03:02:16.184Z,1024.68
2023-02-12T03:03:16.230Z,1024.69
2023-02-12T03:04:16.125Z,1024.67
2023-02-12T03:05:16.092Z,1024.7
2023-02-12T03:06:16.088Z,1024.7
2023-02-12T03:07:16.027Z,1024.68
2023-02-12T03:08:15.998Z,1024.7
2023-02-12T03:09:15.964Z,1024.67
2023-02-12T03:10:15.934Z,1024.7
2023-02-12T03:11:15.902Z,1024.68
2023-02-12T03:12:15.876Z,1024.72
2023-02-12T03:13:15.838Z,1024.72
2023-02-12T03:14:15.810Z,1024.71
2023-02-12T03:15:15.776Z,1024.67
2023-02-12T03:16:15.792Z,1024.74
2023-02-12T03:17:15.712Z,1024.68
2023-02-12T03:18:15.684Z,1024.72
2023-02-12T03:19:15.651Z,1024.73
2023-02-12T03:20:15.622Z,1024.75
2023-02-12T03:21:15.589Z,1024.76
2023-02-12T03:22:15.608Z,1024.77
2023-02-12T03:23:15.531Z,1024.77
2023-02-12T03:24:15.497Z,1024.73
2023-02-12T03:25:15.466Z,1024.69
2023-02-12T03:26:15.436Z,1024.69
2023-02-12T03:27:15.403Z,1024.73
2023-02-12T03:28:15.492Z,1024.7
2023-02-12T03:29:15.340Z,1024.69
2023-02-12T03:30:15.315Z,1024.71
2023-02-12T03:31:15.311Z,1024.74
2023-02-12T03:32:15.247Z,1024.73
2023-02-12T03:33:15.216Z,1024.72
2023-02-12T03:34:15.189Z,1024.72
2023-02-12T03:35:15.156Z,1024.74
2023-02-12T03:36:15.127Z,1024.76
2023-02-12T03:37:15.090Z,1024.76
2023-02-12T03:38:15.093Z,1024.77
2023-02-12T03:39:15.026Z,1024.76
2023-02-12T03:40:15.005Z,1024.79
2023-02-12T03:41:14.965Z,1024.77
2023-02-12T03:42:14.936Z,1024.8
2023-02-12T03:43:14.902Z,1024.8
2023-02-12T03:44:14.873Z,1024.79
2023-02-12T03:45:14.840Z,1024.82
2023-02-12T03:46:14.828Z,1024.87
2023-02-12T03:47:14.780Z,1024.83
2023-02-12T03:48:14.748Z,1024.83
2023-02-12T03:49:14.716Z,1024.89
2023-02-12T03:50:14.695Z,1024.84
2023-02-12T03:51:14.651Z,1024.84
2023-02-12T03:52:14.622Z,1024.82
2023-02-12T03:53:14.588Z,1024.8
2023-02-12T03:54:14.589Z,1024.81
2023-02-12T03:55:14.537Z,1024.83
2023-02-12T03:56:14.491Z,1024.82
2023-02-12T03:57:14.461Z,1024.82
2023-02-12T03:58:14.429Z,1024.82
2023-02-12T03:59:14.400Z,1024.84
2023-02-12T04:00:14.378Z,1024.85
2023-02-12T04:01:14.430Z,1024.85
2023-02-12T04:02:14.338Z,1024.87
2023-02-12T04:03:14.274Z,1024.85
2023-02-12T04:04:14.266Z,1024.87
2023-02-12T04:05:14.208Z,1024.88
2023-02-12T04:06:14.174Z,1024.89
2023-02-12T04:07:14.166Z,1024.88
2023-02-12T04:08:14.110Z,1024.9
2023-02-12T04:09:14.080Z,1024.89
2023-02-12T04:10:14.089Z,1024.92
2023-02-12T04:11:14.018Z,1024.92
2023-02-12T04:12:13.984Z,1024.89
2023-02-12T04:13:13.954Z,1024.91
2023-02-12T04:14:13.921Z,1024.9
2023-02-12T04:15:13.892Z,1024.92
2023-02-12T04:16:13.904Z,1024.93
2023-02-12T04:17:13.830Z,1024.94
2023-02-12T04:18:13.795Z,1024.95
2023-02-12T04:19:13.768Z,1024.94
2023-02-12T04:20:13.734Z,1024.97
2023-02-12T04:21:13.728Z,1024.93
2023-02-12T04:22:13.669Z,1024.93
2023-02-12T04:23:13.643Z,1024.95
2023-02-12T04:24:13.608Z,1024.95
2023-02-12T04:25:13.577Z,1024.96
2023-02-12T04:26:13.578Z,1025.02
2023-02-12T04:27:13.513Z,1025.02
2023-02-12T04:28:13.494Z,1025.06
2023-02-12T04:29:13.453Z,1025.01
2023-02-12T04:30:13.419Z,1025.08
2023-02-12T04:31:13.460Z,1025.04
2023-02-12T04:32:13.357Z,1025.1
2023-02-12T04:33:13.330Z,1025.11
2023-02-12T04:34:13.309Z,1025.16
2023-02-12T04:35:13.265Z,1025.13
2023-02-12T04:36:13.241Z,1025.19
2023-02-12T04:37:13.203Z,1025.18
2023-02-12T04:38:13.171Z,1025.18
2023-02-12T04:39:13.141Z,1025.18
2023-02-12T04:40:13.108Z,1025.18
2023-02-12T04:41:13.081Z,1025.21
2023-02-12T04:42:13.072Z,1025.22
2023-02-12T04:43:13.015Z,1025.2
2023-02-12T04:44:12.984Z,1025.21
2023-02-12T04:45:12.956Z,1025.2
2023-02-12T04:46:12.940Z,1025.21
2023-02-12T04:47:12.892Z,1025.28
2023-02-12T04:48:12.858Z,1025.21
2023-02-12T04:49:12.826Z,1025.24
2023-02-12T04:50:12.796Z,1025.27
2023-02-12T04:51:12.766Z,1025.3
2023-02-12T04:52:12.742Z,1025.32
2023-02-12T04:53:12.709Z,1025.27
2023-02-12T04:54:12.696Z,1025.29
2023-02-12T04:55:12.640Z,1025.31
2023-02-12T04:56:12.608Z,1025.33
2023-02-12T04:57:12.595Z,1025.3
2023-02-12T04:58:12.582Z,1025.33
2023-02-12T04:59:12.516Z,1025.32
2023-02-12T05:00:12.485Z,1025.29
2023-02-12T05:01:12.554Z,1025.28
2023-02-12T05:02:12.421Z,1025.28
2023-02-12T05:03:12.391Z,1025.25
2023-02-12T05:04:12.366Z,1025.24
2023-02-12T05:05:12.347Z,1025.29
2023-02-12T05:06:12.301Z,1025.3
2023-02-12T05:07:12.267Z,1025.3
2023-02-12T05:08:12.229Z,1025.29
2023-02-12T05:09:12.198Z,1025.3
2023-02-12T05:10:12.165Z,1025.28
2023-02-12T05:11:12.133Z,1025.29
2023-02-12T05:12:12.104Z,1025.3
2023-02-12T05:13:12.071Z,1025.28
2023-02-12T05:14:12.072Z,1025.28
2023-02-12T05:15:12.008Z,1025.25
2023-02-12T05:16:12.014Z,1025.27
2023-02-12T05:17:11.946Z,1025.28
2023-02-12T05:18:11.917Z,1025.29
2023-02-12T05:19:11.914Z,1025.31
2023-02-12T05:20:11.852Z,1025.3
2023-02-12T05:21:11.819Z,1025.32
2023-02-12T05:22:11.790Z,1025.3
2023-02-12T05:23:11.764Z,1025.35
2023-02-12T05:24:11.728Z,1025.32
2023-02-12T05:25:11.726Z,1025.35
2023-02-12T05:26:11.664Z,1025.32
2023-02-12T05:27:11.634Z,1025.39
2023-02-12T05:28:11.635Z,1025.35
2023-02-12T05:29:11.570Z,1025.34
2023-02-12T05:30:11.568Z,1025.33
2023-02-12T05:31:11.632Z,1025.39
2023-02-12T05:32:11.571Z,1025.34
2023-02-12T05:33:11.443Z,1025.39
2023-02-12T05:34:11.413Z,1025.36
2023-02-12T05:35:11.380Z,1025.37
2023-02-12T05:36:11.355Z,1025.39
2023-02-12T05:37:11.316Z,1025.39
2023-02-12T05:38:11.285Z,1025.43
2023-02-12T05:39:11.259Z,1025.46
2023-02-12T05:40:11.242Z,1025.46
2023-02-12T05:41:11.197Z,1025.46
2023-02-12T05:42:11.158Z,1025.45
2023-02-12T05:43:11.132Z,1025.42
2023-02-12T05:44:11.094Z,1025.45
2023-02-12T05:45:11.065Z,1025.47
2023-02-12T05:46:11.124Z,1025.48
2023-02-12T05:47:11.005Z,1025.47
2023-02-12T05:48:10.969Z,1025.43
2023-02-12T05:49:10.944Z,1025.42
2023-02-12T05:50:10.906Z,1025.39
2023-02-12T05:51:10.882Z,1025.41
2023-02-12T05:52:10.842Z,1025.43
2023-02-12T05:53:10.817Z,1025.42
2023-02-12T05:54:10.781Z,1025.4
2023-02-12T05:55:10.755Z,1025.39
2023-02-12T05:56:10.716Z,1025.38
2023-02-12T05:57:10.691Z,1025.36
2023-02-12T05:58:10.657Z,1025.38
2023-02-12T05:59:10.623Z,1025.4
2023-02-12T06:00:10.592Z,1025.4
2023-02-12T06:01:10.568Z,1025.4
2023-02-12T06:02:10.556Z,1025.4
2023-02-12T06:03:10.497Z,1025.42
2023-02-12T06:04:10.616Z,1025.42
2023-02-12T06:05:10.434Z,1025.42
2023-02-12T06:06:10.401Z,1025.5
2023-02-12T06:07:10.373Z,1025.46
2023-02-12T06:08:10.338Z,1025.46
2023-02-12T06:09:10.314Z,1025.46
2023-02-12T06:10:10.296Z,1025.46
2023-02-12T06:11:10.245Z,1025.46
2023-02-12T06:12:10.212Z,1025.46
2023-02-12T06:13:10.182Z,1025.51
2023-02-12T06:14:10.150Z,1025.48
2023-02-12T06:15:10.129Z,1025.5
2023-02-12T06:16:10.138Z,1025.52
2023-02-12T06:17:10.055Z,1025.47
2023-02-12T06:18:10.072Z,1025.47
2023-02-12T06:19:09.996Z,1025.48
2023-02-12T06:20:09.965Z,1025.48
2023-02-12T06:21:09.933Z,1025.52
2023-02-12T06:22:09.899Z,1025.49
2023-02-12T06:23:09.870Z,1025.53
2023-02-12T06:24:09.835Z,1025.52
2023-02-12T06:25:09.809Z,1025.48
2023-02-12T06:26:09.773Z,1025.49
2023-02-12T06:27:09.742Z,1025.51
2023-02-12T06:28:09.803Z,1025.54
2023-02-12T06:29:09.681Z,1025.54
2023-02-12T06:30:09.652Z,1025.52
2023-02-12T06:31:09.705Z,1025.54
2023-02-12T06:32:09.683Z,1025.56
2023-02-12T06:33:09.557Z,1025.55
2023-02-12T06:34:09.570Z,1025.59
2023-02-12T06:35:09.502Z,1025.63
2023-02-12T06:36:09.470Z,1025.63
2023-02-12T06:37:09.432Z,1025.61
2023-02-12T06:38:09.402Z,1025.61
2023-02-12T06:39:09.368Z,1025.63
2023-02-12T06:40:09.339Z,1025.61
2023-02-12T06:41:09.318Z,1025.63
2023-02-12T06:42:09.300Z,1025.62
2023-02-12T06:43:09.244Z,1025.62
2023-02-12T06:44:09.215Z,1025.59
2023-02-12T06:45:09.181Z,1025.62
2023-02-12T06:46:09.200Z,1025.63
2023-02-12T06:47:09.129Z,1025.68
2023-02-12T06:48:09.090Z,1025.66
2023-02-12T06:49:09.056Z,1025.66
2023-02-12T06:50:09.068Z,1025.65
2023-02-12T06:51:08.994Z,1025.66
2023-02-12T06:52:08.963Z,1025.66
2023-02-12T06:53:08.932Z,1025.67
2023-02-12T06:54:08.902Z,1025.66
2023-02-12T06:55:08.869Z,1025.63
2023-02-12T06:56:08.837Z,1025.66
2023-02-12T06:57:08.804Z,1025.66
2023-02-12T06:58:08.775Z,1025.67
2023-02-12T06:59:08.742Z,1025.66
2023-02-12T07:00:08.714Z,1025.66
2023-02-12T07:01:08.718Z,1025.67
2023-02-12T07:02:08.650Z,1025.62
2023-02-12T07:03:08.623Z,1025.64
2023-02-12T07:04:08.666Z,1025.67
2023-02-12T07:05:08.552Z,1025.68
2023-02-12T07:06:08.558Z,1025.71
2023-02-12T07:07:08.488Z,1025.72
2023-02-12T07:08:08.459Z,1025.69
2023-02-12T07:09:08.453Z,1025.72
2023-02-12T07:10:08.406Z,1025.7
2023-02-12T07:11:08.362Z,1025.72
2023-02-12T07:12:08.340Z,1025.7
2023-02-12T07:13:08.301Z,1025.73
2023-02-12T07:14:08.282Z,1025.75
2023-02-12T07:15:08.240Z,1025.76
2023-02-12T07:16:08.267Z,1025.74
2023-02-12T07:17:08.174Z,1025.79
2023-02-12T07:18:08.144Z,1025.78
2023-02-12T07:19:08.111Z,1025.78
2023-02-12T07:20:08.086Z,1025.81
2023-02-12T07:21:08.064Z,1025.85
2023-02-12T07:22:08.053Z,1025.82
2023-02-12T07:23:07.987Z,1025.84
2023-02-12T07:24:07.956Z,1025.87
2023-02-12T07:25:07.926Z,1025.86
2023-02-12T07:26:07.914Z,1025.82
2023-02-12T07:27:07.874Z,1025.87
2023-02-12T07:28:07.865Z,1025.94
2023-02-12T07:29:07.801Z,1025.97
2023-02-12T07:30:07.767Z,1025.95
2023-02-12T07:31:07.999Z,1025.98
2023-02-12T07:32:07.797Z,1025.99
2023-02-12T07:33:07.676Z,1025.99
2023-02-12T07:34:07.645Z,1026.05
2023-02-12T07:35:07.616Z,1026.02
2023-02-12T07:36:07.579Z,1026.04
2023-02-12T07:37:07.552Z,1026.03
2023-02-12T07:38:07.544Z,1026.04
2023-02-12T07:39:07.488Z,1026.01
2023-02-12T07:40:07.455Z,1026.05
2023-02-12T07:41:10.220Z,1026.04
2023-02-12T07:42:07.396Z,1025.99
2023-02-12T07:43:07.363Z,1026
2023-02-12T07:44:07.360Z,1026
2023-02-12T07:45:07.301Z,1026.01
2023-02-12T07:46:07.294Z,1026.02
2023-02-12T07:47:07.245Z,1026.06
2023-02-12T07:48:07.211Z,1026.08
2023-02-12T07:49:07.178Z,1026.06
2023-02-12T07:50:07.146Z,1026.1
2023-02-12T07:51:07.117Z,1026.12
2023-02-12T07:52:07.084Z,1026.12
2023-02-12T07:53:07.057Z,1026.12
2023-02-12T07:54:07.058Z,1026.13
2023-02-12T07:55:06.992Z,1026.14
2023-02-12T07:56:06.961Z,1026.15
2023-02-12T07:57:06.934Z,1026.12
2023-02-12T07:58:06.900Z,1026.14
2023-02-12T07:59:06.870Z,1026.19
2023-02-12T08:00:06.846Z,1026.19
2023-02-12T08:01:06.813Z,1026.23
2023-02-12T08:02:06.825Z,1026.21
2023-02-12T08:03:06.750Z,1026.17
2023-02-12T08:04:06.771Z,1026.21
2023-02-12T08:05:06.691Z,1026.18
2023-02-12T08:06:06.740Z,1026.21
2023-02-12T08:07:06.693Z,1026.2
2023-02-12T08:08:06.596Z,1026.17
2023-02-12T08:09:06.566Z,1026.23
2023-02-12T08:10:06.575Z,1026.21
2023-02-12T08:11:06.507Z,1026.2
2023-02-12T08:12:06.475Z,1026.22
2023-02-12T08:13:06.444Z,1026.2
2023-02-12T08:14:06.418Z,1026.25
2023-02-12T08:15:06.385Z,1026.25
2023-02-12T08:16:06.392Z,1026.26
2023-02-12T08:17:06.322Z,1026.29
2023-02-12T08:18:06.295Z,1026.26
2023-02-12T08:19:16.840Z,1026.29
2023-02-12T08:20:06.235Z,1026.31
2023-02-12T08:21:06.206Z,1026.29
2023-02-12T08:22:06.174Z,1026.35
2023-02-12T08:23:06.144Z,1026.38
2023-02-12T08:24:06.114Z,1026.35
2023-02-12T08:25:06.083Z,1026.37
2023-02-12T08:26:06.082Z,1026.4
2023-02-12T08:27:06.023Z,1026.36
2023-02-12T08:28:06.026Z,1026.38
2023-02-12T08:29:05.965Z,1026.39
2023-02-12T08:30:05.933Z,1026.41
2023-02-12T08:31:05.977Z,1026.43
2023-02-12T08:32:05.933Z,1026.43
2023-02-12T08:33:05.843Z,1026.43
2023-02-12T08:34:05.815Z,1026.42
2023-02-12T08:35:05.781Z,1026.43
2023-02-12T08:36:05.788Z,1026.39
2023-02-12T08:37:05.754Z,1026.4
2023-02-12T08:38:05.694Z,1026.42
2023-02-12T08:39:05.663Z,1026.38
2023-02-12T08:40:05.635Z,1026.43
2023-02-12T08:41:05.612Z,1026.39
2023-02-12T08:42:05.603Z,1026.41
2023-02-12T08:43:05.542Z,1026.39
2023-02-12T08:44:05.524Z,1026.44
2023-02-12T08:45:05.483Z,1026.39
2023-02-12T08:46:05.519Z,1026.41
2023-02-12T08:47:05.420Z,1026.41
2023-02-12T08:48:05.393Z,1026.43
2023-02-12T08:49:05.361Z,1026.43
2023-02-12T08:50:05.331Z,1026.47
2023-02-12T08:51:05.306Z,1026.48
2023-02-12T08:52:05.275Z,1026.47
2023-02-12T08:53:05.238Z,1026.52
2023-02-12T08:54:05.211Z,1026.49
2023-02-12T08:55:05.177Z,1026.49
2023-02-12T08:56:05.150Z,1026.52
2023-02-12T08:57:05.116Z,1026.5
2023-02-12T08:58:05.125Z,1026.54
2023-02-12T08:59:05.060Z,1026.54
2023-02-12T09:00:05.027Z,1026.54
2023-02-12T09:01:05.016Z,1026.56
2023-02-12T09:02:05.009Z,1026.58
2023-02-12T09:03:04.941Z,1026.55
2023-02-12T09:04:04.906Z,1026.61
2023-02-12T09:05:04.880Z,1026.61
2023-02-12T09:06:04.850Z,1026.58
2023-02-12T09:07:04.824Z,1026.64
2023-02-12T09:08:04.794Z,1026.62
2023-02-12T09:09:04.774Z,1026.61
2023-02-12T09:10:04.731Z,1026.62
2023-02-12T09:11:04.701Z,1026.63
2023-02-12T09:12:04.667Z,1026.61
2023-02-12T09:13:04.640Z,1026.63
2023-02-12T09:14:04.639Z,1026.66
2023-02-12T09:15:04.581Z,1026.61
2023-02-12T09:16:04.548Z,1026.6
2023-02-12T09:17:04.566Z,1026.63
2023-02-12T09:18:04.490Z,1026.63
2023-02-12T09:19:04.467Z,1026.61
2023-02-12T09:20:04.430Z,1026.62
2023-02-12T09:21:04.401Z,1026.6
2023-02-12T09:22:04.371Z,1026.62
2023-02-12T09:23:04.344Z,1026.66
2023-02-12T09:24:04.313Z,1026.64
2023-02-12T09:25:04.285Z,1026.67
2023-02-12T09:26:04.253Z,1026.68
2023-02-12T09:27:04.225Z,1026.65
2023-02-12T09:28:04.216Z,1026.67
2023-02-12T09:29:04.175Z,1026.64
2023-02-12T09:30:04.163Z,1026.64
2023-02-12T09:31:04.221Z,1026.59
2023-02-12T09:32:04.090Z,1026.67
2023-02-12T09:33:04.050Z,1026.66
2023-02-12T09:34:04.050Z,1026.64
2023-02-12T09:35:03.992Z,1026.65
2023-02-12T09:36:03.967Z,1026.68
2023-02-12T09:37:03.931Z,1026.72
2023-02-12T09:38:03.900Z,1026.66
2023-02-12T09:39:03.877Z,1026.69
2023-02-12T09:40:03.842Z,1026.69
2023-02-12T09:41:03.813Z,1026.65
2023-02-12T09:42:03.785Z,1026.7
2023-02-12T09:43:03.755Z,1026.72
2023-02-12T09:44:03.724Z,1026.71
2023-02-12T09:45:03.696Z,1026.73
2023-02-12T09:46:03.745Z,1026.69
2023-02-12T09:47:03.639Z,1026.72
2023-02-12T09:48:03.610Z,1026.7
2023-02-12T09:49:03.586Z,1026.73
2023-02-12T09:50:03.557Z,1026.7
2023-02-12T09:51:03.538Z,1026.73
2023-02-12T09:52:03.490Z,1026.74
2023-02-12T09:53:03.481Z,1026.74
2023-02-12T09:54:03.436Z,1026.75
2023-02-12T09:55:03.409Z,1026.75
2023-02-12T09:56:03.384Z,1026.75
2023-02-12T09:57:03.348Z,1026.73
2023-02-12T09:58:03.332Z,1026.75
2023-02-12T09:59:03.296Z,1026.73
2023-02-12T10:00:03.262Z,1026.74
2023-02-12T10:01:03.302Z,1026.74
2023-02-12T10:02:03.237Z,1026.73
2023-02-12T10:03:05.231Z,1026.77
2023-02-12T10:04:03.211Z,1026.78
2023-02-12T10:05:03.262Z,1026.81
2023-02-12T10:06:03.109Z,1026.81
2023-02-12T10:07:03.059Z,1026.75
2023-02-12T10:08:03.032Z,1026.8
2023-02-12T10:09:03.002Z,1026.8
2023-02-12T10:10:02.989Z,1026.77
2023-02-12T10:11:02.944Z,1026.78
2023-02-12T10:12:02.918Z,1026.76
2023-02-12T10:13:02.887Z,1026.79
2023-02-12T10:14:02.861Z,1026.75
2023-02-12T10:15:02.828Z,1026.76
2023-02-12T10:16:02.881Z,1026.75
2023-02-12T10:17:02.789Z,1026.75
2023-02-12T10:18:02.776Z,1026.76
2023-02-12T10:19:02.715Z,1026.77
2023-02-12T10:20:02.721Z,1026.77
2023-02-12T10:21:02.668Z,1026.79
2023-02-12T10:22:02.630Z,1026.75
2023-02-12T10:23:02.603Z,1026.76
2023-02-12T10:24:02.579Z,1026.73
2023-02-12T10:25:02.561Z,1026.73
2023-02-12T10:26:02.519Z,1026.72
2023-02-12T10:27:02.489Z,1026.75
2023-02-12T10:28:02.542Z,1026.75
2023-02-12T10:29:02.445Z,1026.74
2023-02-12T10:30:02.404Z,1026.76
2023-02-12T10:31:02.461Z,1026.74
2023-02-12T10:32:02.353Z,1026.75
2023-02-12T10:33:02.319Z,1026.73
2023-02-12T10:34:02.320Z,1026.73
2023-02-12T10:35:02.265Z,1026.72
2023-02-12T10:36:02.236Z,1026.73
2023-02-12T10:37:02.205Z,1026.69
2023-02-12T10:38:02.181Z,1026.7
2023-02-12T10:39:02.153Z,1026.72
2023-02-12T10:40:02.137Z,1026.73
2023-02-12T10:41:02.150Z,1026.72
2023-02-12T10:42:02.065Z,1026.74
2023-02-12T10:43:02.037Z,1026.78
2023-02-12T10:44:02.020Z,1026.8
2023-02-12T10:45:01.984Z,1026.74
2023-02-12T10:46:01.980Z,1026.72
2023-02-12T10:47:01.922Z,1026.71
2023-02-12T10:48:01.894Z,1026.68
2023-02-12T10:49:01.871Z,1026.66
2023-02-12T10:50:01.891Z,1026.67
2023-02-12T10:51:01.813Z,1026.71
2023-02-12T10:52:01.782Z,1026.69
2023-02-12T10:53:01.757Z,1026.69
2023-02-12T10:54:01.730Z,1026.73
2023-02-12T10:55:01.699Z,1026.7
2023-02-12T10:56:01.670Z,1026.68
2023-02-12T10:57:01.645Z,1026.67
2023-02-12T10:58:01.629Z,1026.65
2023-02-12T10:59:01.623Z,1026.66
2023-02-12T11:00:01.558Z,1026.63
2023-02-12T11:01:01.549Z,1026.62
2023-02-12T11:02:01.665Z,1026.61
2023-02-12T11:03:01.478Z,1026.6
2023-02-12T11:04:01.488Z,1026.64
2023-02-12T11:05:01.502Z,1026.62
2023-02-12T11:06:01.420Z,1026.67
2023-02-12T11:07:01.369Z,1026.69
2023-02-12T11:08:01.334Z,1026.62
2023-02-12T11:09:01.309Z,1026.63
2023-02-12T11:10:01.280Z,1026.64
2023-02-12T11:11:01.252Z,1026.62
2023-02-12T11:12:01.234Z,1026.57
2023-02-12T11:13:01.206Z,1026.59
2023-02-12T11:14:01.187Z,1026.6
2023-02-12T11:15:01.145Z,1026.58
2023-02-12T11:16:01.553Z,1026.6
2023-02-12T11:17:01.086Z,1026.58
2023-02-12T11:18:01.085Z,1026.54
2023-02-12T11:19:01.053Z,1026.53
2023-02-12T11:20:01.004Z,1026.54
2023-02-12T11:21:00.985Z,1026.52
2023-02-12T11:22:00.982Z,1026.52
2023-02-12T11:23:00.923Z,1026.54
2023-02-12T11:24:00.897Z,1026.51
2023-02-12T11:25:00.934Z,1026.5
2023-02-12T11:26:00.854Z,1026.49
2023-02-12T11:27:00.815Z,1026.5
2023-02-12T11:28:00.828Z,1026.48
2023-02-12T11:29:00.886Z,1026.49
2023-02-12T11:30:00.731Z,1026.46
2023-02-12T11:31:00.838Z,1026.45
2023-02-12T11:32:00.735Z,1026.44
2023-02-12T11:33:00.652Z,1026.43
2023-02-12T11:34:00.623Z,1026.4
2023-02-12T11:35:00.599Z,1026.44
2023-02-12T11:36:01.055Z,1026.44
2023-02-12T11:37:00.559Z,1026.45
2023-02-12T11:38:00.543Z,1026.43
2023-02-12T11:39:00.490Z,1026.43
2023-02-12T11:40:00.461Z,1026.42
2023-02-12T11:41:00.456Z,1026.38
2023-02-12T11:42:00.413Z,1026.41
2023-02-12T11:43:00.378Z,1026.4
2023-02-12T11:44:00.353Z,1026.41
2023-02-12T11:45:00.324Z,1026.43
2023-02-12T11:46:00.300Z,1026.38
2023-02-12T11:47:00.386Z,1026.43
2023-02-12T11:48:00.257Z,1026.41
2023-02-12T11:49:00.216Z,1026.42
2023-02-12T11:50:00.190Z,1026.43
2023-02-12T11:51:00.163Z,1026.38
2023-02-12T11:52:00.140Z,1026.43
2023-02-12T11:53:00.108Z,1026.37
2023-02-12T11:54:00.126Z,1026.42
2023-02-12T11:55:00.053Z,1026.35
2023-02-12T11:56:00.613Z,1026.41
2023-02-12T11:56:59.998Z,1026.37
2023-02-12T11:57:59.971Z,1026.34
2023-02-12T11:58:59.943Z,1026.36
2023-02-12T11:59:59.916Z,1026.36
2023-02-12T12:00:59.886Z,1026.34
2023-02-12T12:01:59.914Z,1026.32
2023-02-12T12:02:59.859Z,1026.33
2023-02-12T12:03:59.805Z,1026.29
2023-02-12T12:04:59.775Z,1026.29
2023-02-12T12:05:59.749Z,1026.29
2023-02-12T12:06:59.721Z,1026.28
2023-02-12T12:07:59.715Z,1026.25